createdAt,value
2018-05-04T00:02:15.897Z,16.70
2018-05-04T00:04:45.033Z,16.51
2018-05-04T00:07:14.198Z,16.51
2018-05-04T00:09:43.506Z,16.80
2018-05-04T00:12:13.413Z,16.91
2018-05-04T00:14:43.481Z,16.89
2018-05-04T00:17:12.621Z,16.84
2018-05-04T00:19:43.827Z,16.85
2018-05-04T00:22:13.745Z,16.69
2018-05-04T00:24:43.509Z,16.56
2018-05-04T00:27:12.690Z,16.37
2018-05-04T00:29:43.868Z,16.32
2018-05-04T00:32:13.986Z,16.14
2018-05-04T00:34:43.565Z,16.23
2018-05-04T00:37:12.693Z,16.11
2018-05-04T00:39:41.884Z,16.02
2018-05-04T00:42:11.024Z,16.00
2018-05-04T00:44:40.165Z,16.16
2018-05-04T00:47:09.333Z,16.07
2018-05-04T00:49:39.284Z,16.08
2018-05-04T00:52:08.435Z,16.07
2018-05-04T00:54:37.617Z,16.04
2018-05-04T00:57:06.770Z,15.89
2018-05-04T00:59:36.685Z,15.96
2018-05-04T01:02:06.572Z,15.88
2018-05-04T01:04:40.213Z,15.77
2018-05-04T01:07:09.371Z,15.74
2018-05-04T01:09:38.529Z,15.75
2018-05-04T01:12:07.693Z,15.60
2018-05-04T01:14:37.813Z,15.70
2018-05-04T01:17:07.036Z,15.61
2018-05-04T01:19:36.181Z,15.49
2018-05-04T01:22:05.334Z,15.73
2018-05-04T01:24:34.478Z,15.64
2018-05-04T01:27:03.637Z,15.47
2018-05-04T01:29:32.764Z,15.29
2018-05-04T01:32:02.677Z,15.18
2018-05-04T01:34:32.997Z,14.97
2018-05-04T01:37:02.161Z,15.02
2018-05-04T01:39:31.313Z,15.05
2018-05-04T01:42:00.477Z,14.98
2018-05-04T01:44:29.641Z,14.81
2018-05-04T01:46:58.813Z,14.80
2018-05-04T01:49:27.968Z,14.70
2018-05-04T01:51:57.382Z,14.73
2018-05-04T01:54:27.314Z,14.84
2018-05-04T01:56:56.460Z,14.71
2018-05-04T01:59:26.609Z,14.84
2018-05-04T02:01:55.745Z,14.72
2018-05-04T02:04:24.902Z,14.61
2018-05-04T02:06:54.849Z,14.55
2018-05-04T02:09:23.980Z,14.37
2018-05-04T02:11:53.255Z,14.27
2018-05-04T02:14:22.350Z,14.24
2018-05-04T02:16:51.526Z,14.30
2018-05-04T02:19:20.664Z,14.22
2018-05-04T02:21:49.851Z,14.17
2018-05-04T02:24:19.013Z,14.15
2018-05-04T02:26:48.195Z,14.26
2018-05-04T02:29:17.363Z,14.36
2018-05-04T02:31:47.291Z,14.52
2018-05-04T02:34:17.206Z,14.42
2018-05-04T02:36:46.364Z,14.34
2018-05-04T02:39:16.476Z,14.52
2018-05-04T02:41:46.391Z,14.56
2018-05-04T02:44:15.562Z,14.42
2018-05-04T02:46:44.759Z,14.35
2018-05-04T02:49:14.037Z,14.48
2018-05-04T02:51:44.299Z,14.42
2018-05-04T02:54:13.511Z,14.34
2018-05-04T02:56:44.686Z,14.22
2018-05-04T02:59:14.615Z,14.30
2018-05-04T03:01:44.385Z,14.12
2018-05-04T03:04:13.557Z,14.00
2018-05-04T03:06:42.729Z,13.92
2018-05-04T03:09:11.870Z,13.81
2018-05-04T03:11:41.030Z,13.77
2018-05-04T03:14:10.209Z,13.80
2018-05-04T03:16:39.381Z,13.87
2018-05-04T03:19:08.548Z,14.15
2018-05-04T03:21:38.477Z,14.28
2018-05-04T03:24:07.634Z,13.99
2018-05-04T03:26:36.806Z,14.13
2018-05-04T03:29:06.711Z,13.91
2018-05-04T03:31:35.862Z,13.73
2018-05-04T03:34:05.014Z,13.56
2018-05-04T03:36:34.945Z,13.45
2018-05-04T03:39:05.135Z,13.29
2018-05-04T03:41:34.276Z,13.18
2018-05-04T03:44:03.605Z,13.12
2018-05-04T03:46:32.798Z,13.05
2018-05-04T03:49:01.931Z,13.12
2018-05-04T03:51:31.096Z,13.02
2018-05-04T03:54:00.303Z,12.96
2018-05-04T03:56:29.442Z,12.88
2018-05-04T03:59:18.013Z,12.85
2018-05-04T04:15:40.041Z,12.90
2018-05-04T04:18:09.176Z,12.84
2018-05-04T04:20:38.362Z,12.78
2018-05-04T04:23:07.514Z,12.79
2018-05-04T04:25:36.749Z,12.85
2018-05-04T04:28:05.884Z,12.76
2018-05-04T04:30:35.830Z,12.82
2018-05-04T04:33:04.982Z,12.89
2018-05-04T04:35:34.208Z,12.91
2018-05-04T04:38:04.121Z,13.01
2018-05-04T04:40:34.038Z,13.08
2018-05-04T04:43:03.186Z,13.07
2018-05-04T04:45:32.394Z,13.20
2018-05-04T04:48:02.451Z,13.23
2018-05-04T04:50:32.397Z,13.32
2018-05-04T04:53:03.534Z,13.36
2018-05-04T04:55:32.691Z,13.54
2018-05-04T04:58:01.861Z,13.58
2018-05-04T05:00:31.787Z,13.52
2018-05-04T05:03:01.006Z,13.51
2018-05-04T05:05:30.158Z,13.49
2018-05-04T05:07:59.298Z,13.53
2018-05-04T05:10:28.443Z,13.43
2018-05-04T05:12:57.604Z,13.63
2018-05-04T05:15:26.786Z,13.70
2018-05-04T05:17:55.935Z,13.91
2018-05-04T05:20:25.090Z,13.98
2018-05-04T05:22:56.047Z,13.97
2018-05-04T05:25:25.952Z,14.02
2018-05-04T05:27:55.123Z,14.10
2018-05-04T05:30:24.370Z,14.11
2018-05-04T05:32:53.507Z,14.27
2018-05-04T05:35:23.043Z,14.23
2018-05-04T05:37:52.203Z,14.34
2018-05-04T05:40:21.353Z,14.44
2018-05-04T05:42:51.279Z,14.57
2018-05-04T05:45:21.173Z,14.79
2018-05-04T05:47:50.427Z,14.85
2018-05-04T05:50:19.615Z,14.75
2018-05-04T05:52:49.555Z,14.89
2018-05-04T05:55:18.695Z,14.93
2018-05-04T05:57:47.864Z,14.97
2018-05-04T06:00:17.024Z,14.80
2018-05-04T06:02:46.175Z,14.55
2018-05-04T06:05:15.331Z,14.68
2018-05-04T06:07:45.221Z,14.71
2018-05-04T06:10:15.184Z,14.63
2018-05-04T06:12:45.339Z,14.58
2018-05-04T06:15:15.273Z,14.65
2018-05-04T06:17:45.377Z,14.76
2018-05-04T06:20:14.543Z,14.73
2018-05-04T06:22:46.634Z,14.80
2018-05-04T06:25:15.834Z,14.82
2018-05-04T06:27:45.332Z,14.82
2018-05-04T06:30:14.534Z,14.96
2018-05-04T06:32:43.697Z,15.11
2018-05-04T06:35:12.883Z,15.13
2018-05-04T06:37:42.028Z,15.15
2018-05-04T06:40:11.201Z,15.40
2018-05-04T06:42:40.364Z,15.55
2018-05-04T06:45:09.509Z,15.41
2018-05-04T06:47:39.439Z,15.53
2018-05-04T06:50:09.567Z,15.51
2018-05-04T06:52:38.732Z,15.68
2018-05-04T06:55:08.621Z,15.62
2018-05-04T06:57:37.810Z,15.73
2018-05-04T07:00:07.791Z,15.82
2018-05-04T07:02:36.941Z,15.95
2018-05-04T07:05:06.121Z,15.98
2018-05-04T07:07:35.281Z,16.01
2018-05-04T07:10:04.440Z,16.21
2018-05-04T07:12:34.361Z,16.30
2018-05-04T07:15:04.344Z,16.31
2018-05-04T07:17:33.497Z,16.33
2018-05-04T07:20:02.640Z,16.41
2018-05-04T07:22:31.835Z,16.42
2018-05-04T07:25:01.781Z,16.46
2018-05-04T07:27:31.701Z,16.59
2018-05-04T07:30:01.651Z,16.64
2018-05-04T07:32:30.828Z,16.78
2018-05-04T07:35:00.749Z,16.86
2018-05-04T07:37:29.902Z,16.96
2018-05-04T07:39:59.065Z,17.05
2018-05-04T07:42:28.239Z,17.01
2018-05-04T07:44:57.400Z,17.20
2018-05-04T07:47:26.656Z,17.26
2018-05-04T07:49:55.823Z,17.26
2018-05-04T07:52:24.979Z,17.17
2018-05-04T07:54:54.172Z,17.18
2018-05-04T07:57:23.372Z,17.25
2018-05-04T07:59:52.527Z,17.40
2018-05-04T08:02:21.710Z,17.51
2018-05-04T08:04:52.642Z,17.65
2018-05-04T08:07:22.633Z,17.73
2018-05-04T08:09:51.807Z,17.79
2018-05-04T08:12:20.947Z,17.78
2018-05-04T08:14:50.971Z,17.91
2018-05-04T08:17:20.911Z,17.99
2018-05-04T08:19:50.073Z,17.94
2018-05-04T08:22:19.247Z,17.97
2018-05-04T08:24:48.771Z,17.92
2018-05-04T08:27:17.883Z,18.04
2018-05-04T08:29:47.021Z,18.06
2018-05-04T08:32:16.189Z,18.21
2018-05-04T08:34:45.353Z,18.31
2018-05-04T08:37:14.625Z,18.27
2018-05-04T08:39:43.770Z,18.17
2018-05-04T08:42:13.685Z,18.24
2018-05-04T08:44:42.873Z,18.19
2018-05-04T08:47:12.010Z,18.14
2018-05-04T08:49:41.212Z,18.22
2018-05-04T08:52:10.348Z,18.05
2018-05-04T08:54:39.485Z,18.01
2018-05-04T08:57:08.797Z,18.03
2018-05-04T08:59:37.970Z,18.12
2018-05-04T09:02:07.904Z,18.17
2018-05-04T09:04:37.054Z,18.23
2018-05-04T09:07:06.189Z,18.36
2018-05-04T09:09:35.337Z,18.36
2018-05-04T09:12:04.498Z,18.39
2018-05-04T09:14:33.634Z,18.49
2018-05-04T09:17:03.563Z,18.55
2018-05-04T09:19:32.715Z,18.69
2018-05-04T09:22:01.866Z,18.79
2018-05-04T09:24:31.789Z,18.89
2018-05-04T09:27:01.726Z,18.82
2018-05-04T09:29:30.870Z,18.96
2018-05-04T09:32:00.811Z,19.02
2018-05-04T09:34:30.726Z,18.98
2018-05-04T09:37:00.650Z,19.13
2018-05-04T09:39:30.660Z,19.28
2018-05-04T09:42:00.583Z,19.45
2018-05-04T09:44:30.501Z,19.67
2018-05-04T09:46:59.644Z,19.75
2018-05-04T09:49:28.846Z,19.76
2018-05-04T09:51:58.053Z,19.88
2018-05-04T09:54:28.209Z,19.99
2018-05-04T09:56:58.151Z,20.10
2018-05-04T09:59:27.367Z,20.23
2018-05-04T10:01:56.523Z,20.42
2018-05-04T10:04:25.733Z,20.59
2018-05-04T10:06:56.566Z,20.63
2018-05-04T10:09:25.743Z,20.70
2018-05-04T10:11:54.889Z,20.78
2018-05-04T10:14:24.022Z,20.87
2018-05-04T10:16:53.956Z,21.01
2018-05-04T10:19:24.015Z,21.06
2018-05-04T10:21:53.257Z,21.12
2018-05-04T10:24:22.362Z,21.21
2018-05-04T10:26:51.651Z,21.34
2018-05-04T10:29:22.518Z,21.44
2018-05-04T10:31:51.729Z,21.50
2018-05-04T10:34:21.653Z,21.54
2018-05-04T10:36:51.646Z,21.55
2018-05-04T10:39:20.793Z,21.62
2018-05-04T10:41:49.955Z,21.68
2018-05-04T10:44:19.136Z,21.75
2018-05-04T10:46:48.296Z,21.91
2018-05-04T10:49:18.235Z,21.94
2018-05-04T10:51:47.406Z,22.00
2018-05-04T10:54:16.598Z,22.10
2018-05-04T10:56:46.639Z,22.22
2018-05-04T10:59:17.621Z,22.19
2018-05-04T11:01:46.793Z,22.19
2018-05-04T11:04:16.924Z,22.26
2018-05-04T11:06:46.664Z,22.42
2018-05-04T11:09:15.840Z,22.50
2018-05-04T11:11:45.006Z,22.57
2018-05-04T11:14:14.198Z,22.66
2018-05-04T11:16:44.114Z,22.71
2018-05-04T11:19:14.019Z,22.70
2018-05-04T11:21:43.947Z,22.64
2018-05-04T11:24:14.018Z,22.85
2018-05-04T11:26:44.675Z,22.92
2018-05-04T11:29:13.926Z,22.90
2018-05-04T11:31:43.073Z,22.94
2018-05-04T11:34:13.044Z,22.99
2018-05-04T11:36:42.205Z,23.06
2018-05-04T11:39:11.349Z,23.05
2018-05-04T11:41:40.512Z,23.13
2018-05-04T11:44:09.663Z,23.24
2018-05-04T11:46:38.818Z,23.24
2018-05-04T11:49:08.050Z,23.31
2018-05-04T11:51:38.019Z,23.45
2018-05-04T11:54:07.234Z,23.39
2018-05-04T11:56:36.390Z,23.29
2018-05-04T11:59:06.315Z,23.28
2018-05-04T12:01:35.982Z,23.35
2018-05-04T12:04:05.119Z,23.53
2018-05-04T12:06:34.329Z,23.68
2018-05-04T12:09:03.509Z,23.65
2018-05-04T12:11:32.674Z,23.74
2018-05-04T12:14:02.439Z,23.63
2018-05-04T12:16:31.690Z,23.71
2018-05-04T12:19:01.566Z,23.71
2018-05-04T12:21:30.778Z,23.79
2018-05-04T12:24:00.687Z,23.86
2018-05-04T12:26:29.860Z,23.89
2018-05-04T12:28:59.942Z,23.99
2018-05-04T12:31:29.119Z,23.90
2018-05-04T12:33:58.308Z,24.00
2018-05-04T12:36:27.519Z,24.17
2018-05-04T12:38:56.677Z,24.14
2018-05-04T12:41:25.871Z,24.32
2018-05-04T12:43:55.033Z,24.45
2018-05-04T12:46:25.692Z,24.46
2018-05-04T12:48:54.894Z,24.55
2018-05-04T12:51:24.083Z,24.55
2018-05-04T12:53:53.237Z,24.31
2018-05-04T12:56:22.400Z,24.44
2018-05-04T12:58:52.355Z,24.36
2018-05-04T13:01:21.503Z,24.27
2018-05-04T13:03:50.676Z,24.24
2018-05-04T13:06:22.458Z,24.29
2018-05-04T13:08:53.537Z,24.29
2018-05-04T13:11:24.342Z,24.45
2018-05-04T13:13:53.502Z,24.55
2018-05-04T13:16:24.457Z,24.60
2018-05-04T13:18:53.657Z,24.66
2018-05-04T13:21:22.854Z,24.64
2018-05-04T13:23:52.002Z,24.81
2018-05-04T13:26:24.218Z,24.78
2018-05-04T13:28:53.362Z,24.88
2018-05-04T13:31:22.519Z,25.03
2018-05-04T13:33:51.715Z,25.15
2018-05-04T13:36:20.902Z,25.10
2018-05-04T13:38:50.074Z,25.09
2018-05-04T13:41:20.971Z,25.13
2018-05-04T13:43:50.157Z,25.22
2018-05-04T13:46:19.358Z,25.41
2018-05-04T13:48:48.514Z,25.58
2018-05-04T13:51:18.762Z,25.77
2018-05-04T13:53:47.807Z,25.83
2018-05-04T13:56:16.984Z,25.86
2018-05-04T13:58:47.622Z,25.68
2018-05-04T14:01:17.768Z,25.55
2018-05-04T14:03:47.421Z,25.63
2018-05-04T14:06:16.574Z,25.61
2018-05-04T14:08:45.781Z,25.68
2018-05-04T14:11:15.720Z,25.75
2018-05-04T14:13:44.930Z,25.82
2018-05-04T14:16:14.108Z,26.04
2018-05-04T14:18:43.355Z,26.05
2018-05-04T14:21:12.555Z,25.89
2018-05-04T14:23:41.739Z,25.90
2018-05-04T14:26:10.933Z,26.02
2018-05-04T14:28:41.056Z,26.35
2018-05-04T14:31:10.264Z,26.39
2018-05-04T14:33:39.410Z,26.09
2018-05-04T14:36:09.337Z,26.25
2018-05-04T14:38:38.486Z,26.34
2018-05-04T14:41:07.707Z,26.32
2018-05-04T14:43:37.647Z,26.31
2018-05-04T14:46:06.814Z,26.42
2018-05-04T14:48:39.477Z,26.29
2018-05-04T14:51:08.651Z,26.42
2018-05-04T14:53:37.945Z,26.42
2018-05-04T14:56:07.145Z,26.36
2018-05-04T14:58:38.363Z,26.52
2018-05-04T15:01:08.319Z,26.43
2018-05-04T15:03:37.543Z,26.53
2018-05-04T15:06:06.736Z,26.65
2018-05-04T15:08:36.519Z,26.80
2018-05-04T15:11:05.717Z,26.83
2018-05-04T15:13:34.862Z,26.73
2018-05-04T15:16:04.833Z,26.53
2018-05-04T15:18:36.158Z,26.71
2018-05-04T15:21:05.312Z,26.77
2018-05-04T15:23:34.468Z,26.80
2018-05-04T15:26:03.631Z,26.83
2018-05-04T15:28:35.501Z,26.89
2018-05-04T15:31:04.742Z,26.81
2018-05-04T15:33:34.668Z,26.91
2018-05-04T15:36:03.824Z,26.84
2018-05-04T15:38:34.344Z,26.82
2018-05-04T15:41:03.498Z,26.78
2018-05-04T15:43:32.753Z,26.81
2018-05-04T15:46:01.955Z,26.73
2018-05-04T15:48:37.494Z,26.51
2018-05-04T15:51:11.951Z,26.37
2018-05-04T15:53:41.935Z,26.20
2018-05-04T15:56:11.083Z,26.15
2018-05-04T15:58:40.994Z,26.23
2018-05-04T16:01:10.953Z,26.37
2018-05-04T16:03:40.562Z,26.20
2018-05-04T16:06:09.850Z,26.20
2018-05-04T16:08:38.978Z,25.94
2018-05-04T16:11:09.704Z,25.98
2018-05-04T16:13:38.922Z,26.04
2018-05-04T16:16:08.074Z,25.84
2018-05-04T16:18:37.248Z,25.68
2018-05-04T16:21:07.190Z,25.41
2018-05-04T16:23:36.377Z,25.37
2018-05-04T16:26:05.992Z,25.24
2018-05-04T16:28:35.206Z,25.22
2018-05-04T16:31:04.389Z,25.06
2018-05-04T16:33:33.911Z,24.82
2018-05-04T16:36:03.105Z,24.87
2018-05-04T16:38:32.347Z,24.99
2018-05-04T16:41:01.585Z,25.04
2018-05-04T16:43:30.730Z,25.12
2018-05-04T16:45:59.891Z,25.08
2018-05-04T16:48:34.528Z,25.05
2018-05-04T16:51:04.532Z,25.61
2018-05-04T16:53:34.302Z,26.15
2018-05-04T16:56:04.289Z,26.10
2018-05-04T16:58:34.310Z,26.59
2018-05-04T17:01:03.551Z,26.52
2018-05-04T17:03:32.726Z,26.29
2018-05-04T17:06:02.632Z,25.80
2018-05-04T17:08:31.778Z,25.40
2018-05-04T17:11:00.944Z,25.04
2018-05-04T17:13:30.866Z,25.02
2018-05-04T17:16:00.798Z,24.96
2018-05-04T17:18:30.067Z,24.88
2018-05-04T17:20:59.585Z,24.71
2018-05-04T17:23:28.785Z,24.61
2018-05-04T17:25:58.304Z,24.48
2018-05-04T17:28:28.380Z,24.38
2018-05-04T17:31:02.203Z,24.37
2018-05-04T17:33:31.395Z,24.22
2018-05-04T17:36:03.463Z,24.13
2018-05-04T17:38:34.307Z,24.32
2018-05-04T17:41:04.294Z,24.98
2018-05-04T17:43:34.250Z,25.41
2018-05-04T17:46:03.444Z,25.67
2018-05-04T17:48:34.092Z,25.40
2018-05-04T17:51:04.029Z,25.03
2018-05-04T17:53:33.195Z,24.78
2018-05-04T17:56:02.361Z,24.48
2018-05-04T17:58:32.310Z,24.13
2018-05-04T18:01:02.426Z,24.08
2018-05-04T18:03:31.609Z,23.98
2018-05-04T18:06:00.758Z,23.86
2018-05-04T18:08:29.947Z,23.75
2018-05-04T18:11:00.033Z,23.64
2018-05-04T18:13:29.210Z,23.64
2018-05-04T18:15:59.134Z,23.62
2018-05-04T18:18:29.871Z,23.54
2018-05-04T18:20:59.013Z,23.52
2018-05-04T18:23:28.196Z,23.47
2018-05-04T18:25:57.391Z,23.26
2018-05-04T18:28:26.556Z,23.17
2018-05-04T18:30:56.473Z,23.11
2018-05-04T18:33:26.622Z,22.99
2018-05-04T18:35:55.758Z,22.95
2018-05-04T18:38:25.019Z,22.91
2018-05-04T18:40:54.090Z,22.85
2018-05-04T18:43:23.530Z,22.79
2018-05-04T18:45:52.706Z,22.77
2018-05-04T18:48:21.893Z,22.81
2018-05-04T18:50:51.046Z,22.67
2018-05-04T18:53:21.901Z,22.61
2018-05-04T18:55:51.838Z,22.59
2018-05-04T18:58:21.906Z,22.53
2018-05-04T19:00:51.076Z,22.57
2018-05-04T19:03:22.194Z,22.52
2018-05-04T19:05:52.105Z,22.41
2018-05-04T19:08:22.218Z,22.30
2018-05-04T19:10:52.175Z,22.23
2018-05-04T19:13:22.302Z,22.22
2018-05-04T19:15:51.442Z,22.14
2018-05-04T19:18:21.393Z,22.06
2018-05-04T19:20:53.131Z,22.00
2018-05-04T19:23:23.648Z,21.97
2018-05-04T19:25:52.796Z,21.91
2018-05-04T19:28:22.869Z,21.86
2018-05-04T19:30:52.818Z,21.83
2018-05-04T19:33:21.971Z,21.84
2018-05-04T19:35:51.920Z,21.73
2018-05-04T19:38:21.072Z,21.67
2018-05-04T19:40:50.241Z,21.65
2018-05-04T19:43:19.409Z,21.62
2018-05-04T19:45:48.605Z,21.60
2018-05-04T19:48:17.760Z,21.54
2018-05-04T19:50:49.082Z,21.51
2018-05-04T19:53:18.246Z,21.50
2018-05-04T19:55:48.392Z,21.45
2018-05-04T19:58:17.562Z,21.41
2018-05-04T20:00:46.736Z,21.39
2018-05-04T20:03:15.870Z,21.38
2018-05-04T20:05:45.038Z,21.32
2018-05-04T20:08:14.975Z,21.28
2018-05-04T20:10:44.129Z,21.19
2018-05-04T20:13:13.302Z,21.11
2018-05-04T20:15:42.481Z,21.07
2018-05-04T20:18:11.653Z,21.05
2018-05-04T20:20:41.602Z,21.03
2018-05-04T20:23:11.225Z,21.02
2018-05-04T20:25:40.360Z,20.92
2018-05-04T20:28:10.979Z,20.89
2018-05-04T20:30:40.162Z,20.81
2018-05-04T20:33:09.314Z,20.78
2018-05-04T20:35:38.496Z,20.70
2018-05-04T20:38:08.985Z,20.73
2018-05-04T20:40:38.190Z,20.64
2018-05-04T20:43:08.853Z,20.63
2018-05-04T20:45:38.830Z,20.58
2018-05-04T20:48:07.972Z,20.58
2018-05-04T20:50:37.148Z,20.55
2018-05-04T20:53:07.100Z,20.57
2018-05-04T20:55:36.247Z,20.56
2018-05-04T20:58:06.572Z,20.56
2018-05-04T21:00:35.707Z,20.44
2018-05-04T21:03:04.905Z,20.45
2018-05-04T21:05:34.070Z,20.45
2018-05-04T21:08:03.833Z,20.48
2018-05-04T21:10:33.040Z,20.48
2018-05-04T21:13:02.227Z,20.46
2018-05-04T21:15:31.351Z,20.43
2018-05-04T21:18:00.490Z,20.37
2018-05-04T21:20:29.679Z,20.36
2018-05-04T21:22:59.608Z,20.44
2018-05-04T21:25:29.272Z,20.46
2018-05-04T21:27:58.398Z,20.20
2018-05-04T21:30:28.355Z,20.19
2018-05-04T21:32:57.567Z,20.26
2018-05-04T21:35:27.483Z,20.19
2018-05-04T21:37:56.631Z,20.23
2018-05-04T21:40:26.566Z,20.22
2018-05-04T21:42:55.721Z,20.24
2018-05-04T21:45:24.891Z,20.11
2018-05-04T21:47:54.084Z,20.08
2018-05-04T21:50:23.239Z,20.09
2018-05-04T21:52:52.422Z,20.11
2018-05-04T21:55:22.345Z,19.99
2018-05-04T21:57:52.295Z,19.94
2018-05-04T22:00:21.542Z,19.78
2018-05-04T22:02:50.707Z,19.75
2018-05-04T22:05:19.845Z,19.70
2018-05-04T22:07:49.161Z,19.78
2018-05-04T22:10:19.107Z,19.74
2018-05-04T22:12:49.136Z,19.64
2018-05-04T22:15:18.450Z,19.53
2018-05-04T22:17:47.586Z,19.54
2018-05-04T22:20:17.654Z,19.45
2018-05-04T22:22:46.793Z,19.35
2018-05-04T22:25:15.946Z,19.23
2018-05-04T22:27:45.209Z,19.22
2018-05-04T22:30:15.141Z,19.22
2018-05-04T22:32:44.316Z,19.17
2018-05-04T22:35:14.237Z,19.10
2018-05-04T22:37:43.374Z,18.98
2018-05-04T22:40:12.550Z,18.99
2018-05-04T22:42:41.709Z,19.08
2018-05-04T22:45:10.862Z,19.05
2018-05-04T22:47:40.054Z,18.99
2018-05-04T22:50:09.206Z,18.84
2018-05-04T22:52:39.128Z,18.92
2018-05-04T22:55:09.043Z,18.88
2018-05-04T22:57:38.962Z,18.81
2018-05-04T23:00:08.877Z,18.74
2018-05-04T23:02:38.794Z,18.72
2018-05-04T23:05:07.945Z,18.67
2018-05-04T23:07:37.118Z,18.68
2018-05-04T23:10:06.256Z,18.61
2018-05-04T23:12:35.418Z,18.51
2018-05-04T23:15:05.322Z,18.58
2018-05-04T23:17:34.525Z,18.61
2018-05-04T23:20:03.677Z,18.68
2018-05-04T23:22:33.587Z,18.77
2018-05-04T23:25:03.505Z,18.86
2018-05-04T23:27:33.439Z,18.96
2018-05-04T23:30:02.590Z,18.94
2018-05-04T23:32:31.727Z,19.02
2018-05-04T23:35:01.663Z,18.97
2018-05-04T23:37:30.809Z,18.91
2018-05-04T23:40:00.750Z,18.97
2018-05-04T23:42:29.907Z,18.96
2018-05-04T23:44:59.060Z,18.89
2018-05-04T23:47:28.264Z,18.88
2018-05-04T23:49:57.416Z,18.83
2018-05-04T23:52:26.582Z,18.79
2018-05-04T23:54:55.735Z,18.59
2018-05-04T23:57:25.706Z,18.55
2018-05-04T23:59:54.830Z,18.48
